sensor_id;sensor_type;location;lat;lon;timestamp;P1;durP1;ratioP1;P2;durP2;ratioP2
70829;SDS011;58451;51.550;7.208;2023-11-19T00:00:33;4.40;;;1.40;;
70829;SDS011;58451;51.550;7.208;2023-11-19T00:02:04;2.60;;;0.90;;
70829;SDS011;58451;51.550;7.208;2023-11-19T00:03:36;3.60;;;1.40;;
70829;SDS011;58451;51.550;7.208;2023-11-19T00:05:09;2.50;;;1.00;;
70829;SDS011;58451;51.550;7.208;2023-11-19T00:06:44;4.60;;;1.50;;
70829;SDS011;58451;51.550;7.208;2023-11-19T00:08:16;3.70;;;1.60;;
70829;SDS011;58451;51.550;7.208;2023-11-19T00:09:48;3.60;;;1.40;;
70829;SDS011;58451;51.550;7.208;2023-11-19T00:11:19;4.40;;;1.40;;
70829;SDS011;58451;51.550;7.208;2023-11-19T00:12:51;3.90;;;1.40;;
70829;SDS011;58451;51.550;7.208;2023-11-19T00:14:24;4.70;;;1.70;;
70829;SDS011;58451;51.550;7.208;2023-11-19T00:15:57;6.20;;;2.00;;
70829;SDS011;58451;51.550;7.208;2023-11-19T00:17:29;3.90;;;1.60;;
70829;SDS011;58451;51.550;7.208;2023-11-19T00:19:00;5.30;;;1.90;;
70829;SDS011;58451;51.550;7.208;2023-11-19T00:20:32;4.20;;;1.70;;
70829;SDS011;58451;51.550;7.208;2023-11-19T00:22:04;4.30;;;1.60;;
70829;SDS011;58451;51.550;7.208;2023-11-19T00:23:36;5.80;;;2.50;;
70829;SDS011;58451;51.550;7.208;2023-11-19T00:25:09;4.60;;;2.00;;
70829;SDS011;58451;51.550;7.208;2023-11-19T00:26:42;5.00;;;2.10;;
70829;SDS011;58451;51.550;7.208;2023-11-19T00:28:14;6.10;;;2.80;;
70829;SDS011;58451;51.550;7.208;2023-11-19T00:29:46;5.80;;;2.70;;
70829;SDS011;58451;51.550;7.208;2023-11-19T00:31:18;6.30;;;2.70;;
70829;SDS011;58451;51.550;7.208;2023-11-19T00:32:50;6.00;;;2.40;;
70829;SDS011;58451;51.550;7.208;2023-11-19T00:34:22;5.20;;;2.50;;
70829;SDS011;58451;51.550;7.208;2023-11-19T00:35:54;6.70;;;2.70;;
70829;SDS011;58451;51.550;7.208;2023-11-19T00:37:27;5.80;;;2.80;;
70829;SDS011;58451;51.550;7.208;2023-11-19T00:38:59;5.10;;;2.60;;
70829;SDS011;58451;51.550;7.208;2023-11-19T00:40:31;8.00;;;3.20;;
70829;SDS011;58451;51.550;7.208;2023-11-19T00:42:03;7.50;;;3.20;;
70829;SDS011;58451;51.550;7.208;2023-11-19T00:43:35;6.20;;;2.80;;
70829;SDS011;58451;51.550;7.208;2023-11-19T00:45:08;6.30;;;3.30;;
70829;SDS011;58451;51.550;7.208;2023-11-19T00:46:42;7.30;;;3.00;;
70829;SDS011;58451;51.550;7.208;2023-11-19T00:48:14;6.10;;;2.70;;
70829;SDS011;58451;51.550;7.208;2023-11-19T00:49:49;7.00;;;2.70;;
70829;SDS011;58451;51.550;7.208;2023-11-19T00:51:22;6.20;;;2.70;;
70829;SDS011;58451;51.550;7.208;2023-11-19T00:52:53;5.50;;;2.70;;
70829;SDS011;58451;51.550;7.208;2023-11-19T00:54:26;8.30;;;2.70;;
70829;SDS011;58451;51.550;7.208;2023-11-19T00:55:57;6.80;;;2.60;;
70829;SDS011;58451;51.550;7.208;2023-11-19T00:57:30;5.80;;;3.00;;
70829;SDS011;58451;51.550;7.208;2023-11-19T00:59:04;6.40;;;3.20;;
70829;SDS011;58451;51.550;7.208;2023-11-19T01:00:35;7.00;;;3.10;;
70829;SDS011;58451;51.550;7.208;2023-11-19T01:02:07;6.20;;;3.10;;
70829;SDS011;58451;51.550;7.208;2023-11-19T01:03:40;6.70;;;3.40;;
70829;SDS011;58451;51.550;7.208;2023-11-19T01:05:11;7.20;;;3.10;;
70829;SDS011;58451;51.550;7.208;2023-11-19T01:06:46;5.90;;;2.90;;
70829;SDS011;58451;51.550;7.208;2023-11-19T01:08:20;7.90;;;3.60;;
70829;SDS011;58451;51.550;7.208;2023-11-19T01:09:52;8.50;;;3.30;;
70829;SDS011;58451;51.550;7.208;2023-11-19T01:11:24;7.20;;;3.40;;
70829;SDS011;58451;51.550;7.208;2023-11-19T01:12:57;6.50;;;3.20;;
70829;SDS011;58451;51.550;7.208;2023-11-19T01:14:30;6.70;;;3.20;;
70829;SDS011;58451;51.550;7.208;2023-11-19T01:16:02;8.10;;;3.30;;
70829;SDS011;58451;51.550;7.208;2023-11-19T01:17:34;6.60;;;3.10;;
70829;SDS011;58451;51.550;7.208;2023-11-19T01:19:09;6.90;;;3.10;;
70829;SDS011;58451;51.550;7.208;2023-11-19T01:20:48;7.80;;;3.60;;
70829;SDS011;58451;51.550;7.208;2023-11-19T01:22:20;7.80;;;3.70;;
70829;SDS011;58451;51.550;7.208;2023-11-19T01:23:52;7.80;;;3.30;;
70829;SDS011;58451;51.550;7.208;2023-11-19T01:25:24;10.20;;;3.70;;
70829;SDS011;58451;51.550;7.208;2023-11-19T01:26:56;7.30;;;3.20;;
70829;SDS011;58451;51.550;7.208;2023-11-19T01:28:29;6.90;;;3.10;;
70829;SDS011;58451;51.550;7.208;2023-11-19T01:30:02;6.90;;;3.10;;
70829;SDS011;58451;51.550;7.208;2023-11-19T01:31:35;10.10;;;3.80;;
70829;SDS011;58451;51.550;7.208;2023-11-19T01:33:07;8.40;;;3.40;;
70829;SDS011;58451;51.550;7.208;2023-11-19T01:34:40;7.40;;;3.00;;
70829;SDS011;58451;51.550;7.208;2023-11-19T01:36:13;8.40;;;2.90;;
70829;SDS011;58451;51.550;7.208;2023-11-19T01:37:46;6.60;;;3.10;;
70829;SDS011;58451;51.550;7.208;2023-11-19T01:39:17;6.80;;;3.30;;
70829;SDS011;58451;51.550;7.208;2023-11-19T01:40:55;6.10;;;2.60;;
70829;SDS011;58451;51.550;7.208;2023-11-19T01:42:28;6.30;;;2.50;;
70829;SDS011;58451;51.550;7.208;2023-11-19T01:44:00;6.20;;;2.10;;
70829;SDS011;58451;51.550;7.208;2023-11-19T01:45:33;4.90;;;2.10;;
70829;SDS011;58451;51.550;7.208;2023-11-19T01:47:06;7.60;;;2.40;;
70829;SDS011;58451;51.550;7.208;2023-11-19T01:48:41;5.00;;;2.00;;
70829;SDS011;58451;51.550;7.208;2023-11-19T01:50:16;5.00;;;1.90;;
70829;SDS011;58451;51.550;7.208;2023-11-19T01:51:48;4.10;;;1.50;;
70829;SDS011;58451;51.550;7.208;2023-11-19T01:53:20;3.20;;;1.30;;
70829;SDS011;58451;51.550;7.208;2023-11-19T01:54:53;4.80;;;1.50;;
70829;SDS011;58451;51.550;7.208;2023-11-19T01:56:26;3.90;;;1.60;;
70829;SDS011;58451;51.550;7.208;2023-11-19T01:58:00;4.30;;;1.60;;
70829;SDS011;58451;51.550;7.208;2023-11-19T01:59:34;4.50;;;1.40;;
70829;SDS011;58451;51.550;7.208;2023-11-19T02:01:06;4.20;;;1.60;;
70829;SDS011;58451;51.550;7.208;2023-11-19T02:02:40;3.30;;;1.20;;
70829;SDS011;58451;51.550;7.208;2023-11-19T02:04:12;5.00;;;1.80;;
70829;SDS011;58451;51.550;7.208;2023-11-19T02:05:48;4.40;;;1.70;;
70829;SDS011;58451;51.550;7.208;2023-11-19T02:07:24;4.40;;;1.90;;
70829;SDS011;58451;51.550;7.208;2023-11-19T02:08:57;4.30;;;1.80;;
70829;SDS011;58451;51.550;7.208;2023-11-19T02:10:29;4.40;;;1.60;;
70829;SDS011;58451;51.550;7.208;2023-11-19T02:12:01;4.50;;;1.80;;
70829;SDS011;58451;51.550;7.208;2023-11-19T02:13:32;4.90;;;1.80;;
70829;SDS011;58451;51.550;7.208;2023-11-19T02:15:07;6.80;;;2.10;;
70829;SDS011;58451;51.550;7.208;2023-11-19T02:16:40;4.30;;;1.80;;
70829;SDS011;58451;51.550;7.208;2023-11-19T02:18:22;4.30;;;1.60;;
70829;SDS011;58451;51.550;7.208;2023-11-19T02:19:54;5.00;;;1.90;;
70829;SDS011;58451;51.550;7.208;2023-11-19T02:21:26;5.40;;;1.90;;
70829;SDS011;58451;51.550;7.208;2023-11-19T02:22:58;6.50;;;2.50;;
70829;SDS011;58451;51.550;7.208;2023-11-19T02:24:31;4.50;;;1.90;;
70829;SDS011;58451;51.550;7.208;2023-11-19T02:26:26;6.50;;;2.50;;
70829;SDS011;58451;51.550;7.208;2023-11-19T02:28:08;7.40;;;2.70;;
70829;SDS011;58451;51.550;7.208;2023-11-19T02:29:43;5.20;;;2.00;;
70829;SDS011;58451;51.550;7.208;2023-11-19T02:31:15;8.50;;;2.40;;
70829;SDS011;58451;51.550;7.208;2023-11-19T02:32:47;7.60;;;2.40;;
70829;SDS011;58451;51.550;7.208;2023-11-19T02:34:20;6.00;;;1.70;;
70829;SDS011;58451;51.550;7.208;2023-11-19T02:35:53;6.30;;;2.40;;
70829;SDS011;58451;51.550;7.208;2023-11-19T02:37:25;7.20;;;2.40;;
70829;SDS011;58451;51.550;7.208;2023-11-19T02:38:57;8.90;;;2.60;;
70829;SDS011;58451;51.550;7.208;2023-11-19T02:40:29;6.10;;;2.10;;
70829;SDS011;58451;51.550;7.208;2023-11-19T02:42:01;7.90;;;2.60;;
70829;SDS011;58451;51.550;7.208;2023-11-19T02:43:38;6.10;;;2.20;;
70829;SDS011;58451;51.550;7.208;2023-11-19T02:45:10;7.30;;;2.50;;
70829;SDS011;58451;51.550;7.208;2023-11-19T02:46:46;5.40;;;2.30;;
70829;SDS011;58451;51.550;7.208;2023-11-19T02:48:20;5.40;;;1.90;;
70829;SDS011;58451;51.550;7.208;2023-11-19T02:49:52;7.60;;;2.30;;
70829;SDS011;58451;51.550;7.208;2023-11-19T02:51:24;8.20;;;2.00;;
70829;SDS011;58451;51.550;7.208;2023-11-19T02:52:56;8.10;;;2.10;;
70829;SDS011;58451;51.550;7.208;2023-11-19T02:54:28;8.30;;;1.90;;
70829;SDS011;58451;51.550;7.208;2023-11-19T02:56:02;6.40;;;1.60;;
70829;SDS011;58451;51.550;7.208;2023-11-19T02:57:41;7.30;;;1.80;;
70829;SDS011;58451;51.550;7.208;2023-11-19T02:59:20;6.40;;;1.60;;
70829;SDS011;58451;51.550;7.208;2023-11-19T03:00:59;5.00;;;1.10;;
70829;SDS011;58451;51.550;7.208;2023-11-19T03:02:41;5.50;;;1.60;;
70829;SDS011;58451;51.550;7.208;2023-11-19T03:04:18;6.00;;;1.30;;
70829;SDS011;58451;51.550;7.208;2023-11-19T03:05:51;8.90;;;1.70;;
70829;SDS011;58451;51.550;7.208;2023-11-19T03:07:23;7.50;;;1.60;;
70829;SDS011;58451;51.550;7.208;2023-11-19T03:08:55;4.90;;;1.10;;
70829;SDS011;58451;51.550;7.208;2023-11-19T03:10:28;9.00;;;2.00;;
70829;SDS011;58451;51.550;7.208;2023-11-19T03:12:01;9.20;;;1.80;;
70829;SDS011;58451;51.550;7.208;2023-11-19T03:13:33;4.20;;;1.30;;
70829;SDS011;58451;51.550;7.208;2023-11-19T03:15:06;9.70;;;1.80;;
70829;SDS011;58451;51.550;7.208;2023-11-19T03:16:39;8.00;;;1.60;;
70829;SDS011;58451;51.550;7.208;2023-11-19T03:18:11;6.60;;;1.60;;
70829;SDS011;58451;51.550;7.208;2023-11-19T03:19:42;7.80;;;1.60;;
70829;SDS011;58451;51.550;7.208;2023-11-19T03:21:14;9.40;;;2.40;;
70829;SDS011;58451;51.550;7.208;2023-11-19T03:22:46;9.90;;;1.40;;
70829;SDS011;58451;51.550;7.208;2023-11-19T03:24:18;6.70;;;1.70;;
70829;SDS011;58451;51.550;7.208;2023-11-19T03:25:50;8.60;;;1.60;;
70829;SDS011;58451;51.550;7.208;2023-11-19T03:27:22;8.10;;;1.30;;
70829;SDS011;58451;51.550;7.208;2023-11-19T03:28:54;8.10;;;1.50;;
70829;SDS011;58451;51.550;7.208;2023-11-19T03:30:26;7.30;;;1.60;;
70829;SDS011;58451;51.550;7.208;2023-11-19T03:32:02;8.50;;;1.70;;
70829;SDS011;58451;51.550;7.208;2023-11-19T03:33:34;6.60;;;1.50;;
70829;SDS011;58451;51.550;7.208;2023-11-19T03:35:06;10.60;;;2.00;;
70829;SDS011;58451;51.550;7.208;2023-11-19T03:36:43;7.90;;;2.00;;
70829;SDS011;58451;51.550;7.208;2023-11-19T03:38:15;7.40;;;1.50;;
70829;SDS011;58451;51.550;7.208;2023-11-19T03:39:47;12.50;;;2.20;;
70829;SDS011;58451;51.550;7.208;2023-11-19T03:41:18;10.00;;;2.00;;
70829;SDS011;58451;51.550;7.208;2023-11-19T03:42:51;7.70;;;1.70;;
70829;SDS011;58451;51.550;7.208;2023-11-19T03:44:22;9.70;;;2.00;;
70829;SDS011;58451;51.550;7.208;2023-11-19T03:45:55;15.30;;;2.90;;
70829;SDS011;58451;51.550;7.208;2023-11-19T03:47:26;9.60;;;2.00;;
70829;SDS011;58451;51.550;7.208;2023-11-19T03:48:59;8.90;;;2.00;;
70829;SDS011;58451;51.550;7.208;2023-11-19T03:50:31;12.40;;;2.10;;
70829;SDS011;58451;51.550;7.208;2023-11-19T03:52:03;9.80;;;1.90;;
70829;SDS011;58451;51.550;7.208;2023-11-19T03:53:37;10.30;;;2.30;;
70829;SDS011;58451;51.550;7.208;2023-11-19T03:55:09;10.00;;;1.80;;
70829;SDS011;58451;51.550;7.208;2023-11-19T03:56:41;14.60;;;1.90;;
70829;SDS011;58451;51.550;7.208;2023-11-19T03:58:12;9.60;;;1.90;;
70829;SDS011;58451;51.550;7.208;2023-11-19T03:59:45;12.60;;;1.80;;
70829;SDS011;58451;51.550;7.208;2023-11-19T04:01:17;12.90;;;2.40;;
70829;SDS011;58451;51.550;7.208;2023-11-19T04:02:50;8.00;;;1.70;;
70829;SDS011;58451;51.550;7.208;2023-11-19T04:04:22;10.90;;;2.00;;
70829;SDS011;58451;51.550;7.208;2023-11-19T04:05:54;9.10;;;1.50;;
70829;SDS011;58451;51.550;7.208;2023-11-19T04:07:25;9.60;;;1.70;;
70829;SDS011;58451;51.550;7.208;2023-11-19T04:08:57;7.40;;;1.50;;
70829;SDS011;58451;51.550;7.208;2023-11-19T04:10:29;10.40;;;1.80;;
70829;SDS011;58451;51.550;7.208;2023-11-19T04:12:01;10.30;;;1.80;;
70829;SDS011;58451;51.550;7.208;2023-11-19T04:13:33;11.90;;;1.90;;
70829;SDS011;58451;51.550;7.208;2023-11-19T04:15:05;13.60;;;1.80;;
70829;SDS011;58451;51.550;7.208;2023-11-19T04:16:39;11.20;;;1.90;;
70829;SDS011;58451;51.550;7.208;2023-11-19T04:18:11;11.70;;;1.60;;
70829;SDS011;58451;51.550;7.208;2023-11-19T04:19:43;10.00;;;1.60;;
70829;SDS011;58451;51.550;7.208;2023-11-19T04:21:15;10.90;;;1.50;;
70829;SDS011;58451;51.550;7.208;2023-11-19T04:22:50;12.90;;;1.70;;
70829;SDS011;58451;51.550;7.208;2023-11-19T04:24:22;15.00;;;1.90;;
70829;SDS011;58451;51.550;7.208;2023-11-19T04:25:54;12.80;;;1.60;;
70829;SDS011;58451;51.550;7.208;2023-11-19T04:27:42;10.40;;;1.70;;
70829;SDS011;58451;51.550;7.208;2023-11-19T04:29:15;11.80;;;1.80;;
70829;SDS011;58451;51.550;7.208;2023-11-19T04:30:51;10.90;;;1.40;;
70829;SDS011;58451;51.550;7.208;2023-11-19T04:32:23;14.80;;;1.70;;
70829;SDS011;58451;51.550;7.208;2023-11-19T04:33:57;12.10;;;1.30;;
70829;SDS011;58451;51.550;7.208;2023-11-19T04:35:29;12.10;;;1.50;;
70829;SDS011;58451;51.550;7.208;2023-11-19T04:37:00;15.90;;;1.90;;
70829;SDS011;58451;51.550;7.208;2023-11-19T04:38:44;15.30;;;1.80;;
70829;SDS011;58451;51.550;7.208;2023-11-19T04:40:16;12.50;;;1.40;;
70829;SDS011;58451;51.550;7.208;2023-11-19T04:41:50;14.60;;;1.80;;
70829;SDS011;58451;51.550;7.208;2023-11-19T04:43:26;14.90;;;1.70;;
70829;SDS011;58451;51.550;7.208;2023-11-19T04:44:58;14.60;;;2.30;;
70829;SDS011;58451;51.550;7.208;2023-11-19T04:46:30;11.10;;;1.70;;
70829;SDS011;58451;51.550;7.208;2023-11-19T04:48:02;12.90;;;1.70;;
70829;SDS011;58451;51.550;7.208;2023-11-19T04:49:34;14.10;;;1.50;;
70829;SDS011;58451;51.550;7.208;2023-11-19T04:51:06;12.70;;;1.50;;
70829;SDS011;58451;51.550;7.208;2023-11-19T04:52:38;16.20;;;1.70;;
70829;SDS011;58451;51.550;7.208;2023-11-19T04:54:16;12.50;;;1.80;;
70829;SDS011;58451;51.550;7.208;2023-11-19T04:55:48;12.50;;;1.50;;
70829;SDS011;58451;51.550;7.208;2023-11-19T04:57:20;10.60;;;1.30;;
70829;SDS011;58451;51.550;7.208;2023-11-19T04:58:52;11.90;;;1.60;;
70829;SDS011;58451;51.550;7.208;2023-11-19T05:00:23;12.00;;;1.90;;
70829;SDS011;58451;51.550;7.208;2023-11-19T05:01:56;12.50;;;1.60;;
70829;SDS011;58451;51.550;7.208;2023-11-19T05:03:27;9.70;;;1.60;;
70829;SDS011;58451;51.550;7.208;2023-11-19T05:05:01;16.80;;;1.80;;
70829;SDS011;58451;51.550;7.208;2023-11-19T05:06:35;14.40;;;2.20;;
70829;SDS011;58451;51.550;7.208;2023-11-19T05:08:07;12.30;;;1.50;;
70829;SDS011;58451;51.550;7.208;2023-11-19T05:09:38;10.30;;;1.70;;
70829;SDS011;58451;51.550;7.208;2023-11-19T05:11:10;14.70;;;1.30;;
70829;SDS011;58451;51.550;7.208;2023-11-19T05:12:43;17.90;;;1.70;;
70829;SDS011;58451;51.550;7.208;2023-11-19T05:14:15;14.40;;;2.10;;
70829;SDS011;58451;51.550;7.208;2023-11-19T05:15:47;17.30;;;2.20;;
70829;SDS011;58451;51.550;7.208;2023-11-19T05:25:39;12.20;;;1.60;;
70829;SDS011;58451;51.550;7.208;2023-11-19T05:27:11;22.80;;;2.40;;
70829;SDS011;58451;51.550;7.208;2023-11-19T05:28:45;13.60;;;2.10;;
70829;SDS011;58451;51.550;7.208;2023-11-19T05:30:17;17.60;;;1.90;;
70829;SDS011;58451;51.550;7.208;2023-11-19T05:31:49;17.30;;;2.10;;
70829;SDS011;58451;51.550;7.208;2023-11-19T05:33:21;21.30;;;2.50;;
70829;SDS011;58451;51.550;7.208;2023-11-19T05:34:53;19.50;;;2.50;;
70829;SDS011;58451;51.550;7.208;2023-11-19T05:36:25;23.50;;;2.50;;
70829;SDS011;58451;51.550;7.208;2023-11-19T05:37:56;23.30;;;2.80;;
70829;SDS011;58451;51.550;7.208;2023-11-19T05:39:29;16.30;;;2.60;;
70829;SDS011;58451;51.550;7.208;2023-11-19T05:41:01;15.20;;;1.90;;
70829;SDS011;58451;51.550;7.208;2023-11-19T05:42:33;19.90;;;2.30;;
70829;SDS011;58451;51.550;7.208;2023-11-19T05:44:05;13.00;;;1.80;;
70829;SDS011;58451;51.550;7.208;2023-11-19T05:45:38;19.80;;;2.20;;
70829;SDS011;58451;51.550;7.208;2023-11-19T05:47:10;17.70;;;1.90;;
70829;SDS011;58451;51.550;7.208;2023-11-19T05:48:42;15.90;;;1.90;;
70829;SDS011;58451;51.550;7.208;2023-11-19T05:50:14;20.60;;;2.40;;
70829;SDS011;58451;51.550;7.208;2023-11-19T05:51:46;18.20;;;3.10;;
70829;SDS011;58451;51.550;7.208;2023-11-19T05:53:18;21.30;;;4.30;;
70829;SDS011;58451;51.550;7.208;2023-11-19T05:54:50;18.50;;;3.20;;
70829;SDS011;58451;51.550;7.208;2023-11-19T05:56:24;17.30;;;2.50;;
70829;SDS011;58451;51.550;7.208;2023-11-19T05:57:56;20.80;;;2.10;;
70829;SDS011;58451;51.550;7.208;2023-11-19T05:59:28;15.60;;;2.30;;
70829;SDS011;58451;51.550;7.208;2023-11-19T06:01:02;19.90;;;1.90;;
70829;SDS011;58451;51.550;7.208;2023-11-19T06:02:35;24.00;;;2.90;;
70829;SDS011;58451;51.550;7.208;2023-11-19T06:04:09;17.40;;;1.90;;
70829;SDS011;58451;51.550;7.208;2023-11-19T06:05:44;19.60;;;2.50;;
70829;SDS011;58451;51.550;7.208;2023-11-19T06:07:17;16.10;;;2.70;;
70829;SDS011;58451;51.550;7.208;2023-11-19T06:08:49;17.00;;;2.80;;
70829;SDS011;58451;51.550;7.208;2023-11-19T06:10:22;16.80;;;2.60;;
70829;SDS011;58451;51.550;7.208;2023-11-19T06:11:56;23.80;;;3.00;;
70829;SDS011;58451;51.550;7.208;2023-11-19T06:13:28;18.00;;;2.20;;
70829;SDS011;58451;51.550;7.208;2023-11-19T06:15:04;15.60;;;1.90;;
70829;SDS011;58451;51.550;7.208;2023-11-19T06:16:37;15.60;;;2.20;;
70829;SDS011;58451;51.550;7.208;2023-11-19T06:18:12;23.00;;;2.50;;
70829;SDS011;58451;51.550;7.208;2023-11-19T06:19:44;18.60;;;2.00;;
70829;SDS011;58451;51.550;7.208;2023-11-19T06:21:16;16.20;;;2.10;;
70829;SDS011;58451;51.550;7.208;2023-11-19T06:22:48;23.30;;;2.20;;
70829;SDS011;58451;51.550;7.208;2023-11-19T06:24:20;16.40;;;1.80;;
70829;SDS011;58451;51.550;7.208;2023-11-19T06:25:52;15.30;;;1.90;;
70829;SDS011;58451;51.550;7.208;2023-11-19T06:27:24;16.10;;;1.90;;
70829;SDS011;58451;51.550;7.208;2023-11-19T06:28:55;16.40;;;1.90;;
70829;SDS011;58451;51.550;7.208;2023-11-19T06:30:27;18.30;;;2.00;;
70829;SDS011;58451;51.550;7.208;2023-11-19T06:32:01;19.90;;;1.70;;
70829;SDS011;58451;51.550;7.208;2023-11-19T06:33:46;17.80;;;2.00;;
70829;SDS011;58451;51.550;7.208;2023-11-19T06:35:18;13.60;;;1.60;;
70829;SDS011;58451;51.550;7.208;2023-11-19T06:36:49;22.20;;;2.30;;
70829;SDS011;58451;51.550;7.208;2023-11-19T06:38:21;18.70;;;2.10;;
70829;SDS011;58451;51.550;7.208;2023-11-19T06:39:53;13.60;;;1.80;;
70829;SDS011;58451;51.550;7.208;2023-11-19T06:41:25;12.60;;;1.50;;
70829;SDS011;58451;51.550;7.208;2023-11-19T06:42:57;17.30;;;1.80;;
70829;SDS011;58451;51.550;7.208;2023-11-19T06:44:29;17.80;;;2.60;;
70829;SDS011;58451;51.550;7.208;2023-11-19T06:46:01;17.20;;;2.20;;
70829;SDS011;58451;51.550;7.208;2023-11-19T06:47:33;18.50;;;2.10;;
70829;SDS011;58451;51.550;7.208;2023-11-19T06:49:05;21.60;;;2.30;;
70829;SDS011;58451;51.550;7.208;2023-11-19T06:50:39;15.50;;;1.90;;
70829;SDS011;58451;51.550;7.208;2023-11-19T06:52:11;20.80;;;2.00;;
70829;SDS011;58451;51.550;7.208;2023-11-19T06:53:43;18.40;;;2.20;;
70829;SDS011;58451;51.550;7.208;2023-11-19T06:55:16;19.20;;;2.60;;
70829;SDS011;58451;51.550;7.208;2023-11-19T06:56:48;18.70;;;2.10;;
70829;SDS011;58451;51.550;7.208;2023-11-19T06:58:20;15.90;;;1.80;;
70829;SDS011;58451;51.550;7.208;2023-11-19T06:59:52;17.50;;;2.50;;
70829;SDS011;58451;51.550;7.208;2023-11-19T07:01:24;18.00;;;2.10;;
70829;SDS011;58451;51.550;7.208;2023-11-19T07:02:56;23.30;;;2.30;;
70829;SDS011;58451;51.550;7.208;2023-11-19T07:04:28;13.50;;;1.60;;
70829;SDS011;58451;51.550;7.208;2023-11-19T07:06:00;17.30;;;2.30;;
70829;SDS011;58451;51.550;7.208;2023-11-19T07:07:32;18.50;;;2.10;;
70829;SDS011;58451;51.550;7.208;2023-11-19T07:09:07;17.60;;;1.90;;
70829;SDS011;58451;51.550;7.208;2023-11-19T07:10:43;17.40;;;1.90;;
70829;SDS011;58451;51.550;7.208;2023-11-19T07:12:14;17.70;;;2.40;;
70829;SDS011;58451;51.550;7.208;2023-11-19T07:13:47;17.70;;;2.30;;
70829;SDS011;58451;51.550;7.208;2023-11-19T07:15:19;15.00;;;1.80;;
70829;SDS011;58451;51.550;7.208;2023-11-19T07:16:50;25.80;;;2.90;;
70829;SDS011;58451;51.550;7.208;2023-11-19T07:18:22;16.80;;;2.50;;
70829;SDS011;58451;51.550;7.208;2023-11-19T07:19:54;15.80;;;1.90;;
70829;SDS011;58451;51.550;7.208;2023-11-19T07:21:43;18.90;;;2.20;;
70829;SDS011;58451;51.550;7.208;2023-11-19T07:23:21;20.80;;;2.30;;
70829;SDS011;58451;51.550;7.208;2023-11-19T07:25:02;15.30;;;1.90;;
70829;SDS011;58451;51.550;7.208;2023-11-19T07:26:51;17.50;;;1.80;;
70829;SDS011;58451;51.550;7.208;2023-11-19T07:28:30;17.20;;;2.10;;
70829;SDS011;58451;51.550;7.208;2023-11-19T07:30:15;17.80;;;2.20;;
70829;SDS011;58451;51.550;7.208;2023-11-19T07:31:50;15.20;;;2.30;;
70829;SDS011;58451;51.550;7.208;2023-11-19T07:33:22;14.90;;;1.80;;
70829;SDS011;58451;51.550;7.208;2023-11-19T07:34:54;15.80;;;1.80;;
70829;SDS011;58451;51.550;7.208;2023-11-19T07:36:28;22.40;;;2.50;;
70829;SDS011;58451;51.550;7.208;2023-11-19T07:38:00;21.20;;;2.60;;
70829;SDS011;58451;51.550;7.208;2023-11-19T07:39:31;18.90;;;2.10;;
70829;SDS011;58451;51.550;7.208;2023-11-19T07:41:05;19.50;;;2.20;;
70829;SDS011;58451;51.550;7.208;2023-11-19T07:42:38;20.30;;;2.10;;
70829;SDS011;58451;51.550;7.208;2023-11-19T07:44:10;13.70;;;1.60;;
70829;SDS011;58451;51.550;7.208;2023-11-19T07:45:43;18.40;;;1.70;;
70829;SDS011;58451;51.550;7.208;2023-11-19T07:47:18;17.50;;;1.60;;
70829;SDS011;58451;51.550;7.208;2023-11-19T07:48:49;15.30;;;1.70;;
70829;SDS011;58451;51.550;7.208;2023-11-19T07:50:21;17.90;;;2.40;;
70829;SDS011;58451;51.550;7.208;2023-11-19T07:51:53;12.60;;;1.50;;
70829;SDS011;58451;51.550;7.208;2023-11-19T07:53:25;17.00;;;1.80;;
70829;SDS011;58451;51.550;7.208;2023-11-19T07:54:57;19.20;;;2.00;;
70829;SDS011;58451;51.550;7.208;2023-11-19T07:56:29;17.70;;;1.90;;
70829;SDS011;58451;51.550;7.208;2023-11-19T07:58:01;18.90;;;1.80;;
70829;SDS011;58451;51.550;7.208;2023-11-19T07:59:33;16.40;;;2.30;;
70829;SDS011;58451;51.550;7.208;2023-11-19T08:01:05;16.90;;;1.90;;
70829;SDS011;58451;51.550;7.208;2023-11-19T08:02:37;17.60;;;2.30;;
70829;SDS011;58451;51.550;7.208;2023-11-19T08:04:09;21.70;;;3.10;;
70829;SDS011;58451;51.550;7.208;2023-11-19T08:05:41;19.20;;;2.90;;
70829;SDS011;58451;51.550;7.208;2023-11-19T08:07:13;19.90;;;2.40;;
70829;SDS011;58451;51.550;7.208;2023-11-19T08:08:44;18.40;;;2.00;;
70829;SDS011;58451;51.550;7.208;2023-11-19T08:10:16;14.80;;;1.90;;
70829;SDS011;58451;51.550;7.208;2023-11-19T08:11:48;17.00;;;2.30;;
70829;SDS011;58451;51.550;7.208;2023-11-19T08:13:21;19.10;;;2.00;;
70829;SDS011;58451;51.550;7.208;2023-11-19T08:14:53;21.80;;;2.70;;
70829;SDS011;58451;51.550;7.208;2023-11-19T08:16:25;18.90;;;2.40;;
70829;SDS011;58451;51.550;7.208;2023-11-19T08:17:57;18.90;;;2.70;;
70829;SDS011;58451;51.550;7.208;2023-11-19T08:19:29;19.50;;;1.90;;
70829;SDS011;58451;51.550;7.208;2023-11-19T08:21:03;19.60;;;2.40;;
70829;SDS011;58451;51.550;7.208;2023-11-19T08:22:37;20.10;;;2.10;;
70829;SDS011;58451;51.550;7.208;2023-11-19T08:24:09;17.40;;;2.00;;
70829;SDS011;58451;51.550;7.208;2023-11-19T08:25:41;16.20;;;1.90;;
70829;SDS011;58451;51.550;7.208;2023-11-19T08:27:13;17.50;;;1.90;;
70829;SDS011;58451;51.550;7.208;2023-11-19T08:28:45;22.60;;;1.80;;
70829;SDS011;58451;51.550;7.208;2023-11-19T08:30:17;18.40;;;1.60;;
70829;SDS011;58451;51.550;7.208;2023-11-19T08:31:48;16.60;;;1.70;;
70829;SDS011;58451;51.550;7.208;2023-11-19T08:33:20;22.40;;;2.70;;
70829;SDS011;58451;51.550;7.208;2023-11-19T08:34:54;16.20;;;2.00;;
70829;SDS011;58451;51.550;7.208;2023-11-19T08:36:26;18.00;;;2.00;;
70829;SDS011;58451;51.550;7.208;2023-11-19T08:37:59;18.10;;;2.30;;
70829;SDS011;58451;51.550;7.208;2023-11-19T08:39:31;17.60;;;1.80;;
70829;SDS011;58451;51.550;7.208;2023-11-19T08:41:03;17.10;;;2.00;;
70829;SDS011;58451;51.550;7.208;2023-11-19T08:42:35;16.20;;;2.60;;
70829;SDS011;58451;51.550;7.208;2023-11-19T08:44:08;18.50;;;2.10;;
70829;SDS011;58451;51.550;7.208;2023-11-19T08:45:39;13.30;;;1.80;;
70829;SDS011;58451;51.550;7.208;2023-11-19T08:47:11;22.30;;;2.40;;
70829;SDS011;58451;51.550;7.208;2023-11-19T08:48:45;18.10;;;1.80;;
70829;SDS011;58451;51.550;7.208;2023-11-19T08:50:17;20.40;;;2.10;;
70829;SDS011;58451;51.550;7.208;2023-11-19T08:51:49;19.00;;;2.60;;
70829;SDS011;58451;51.550;7.208;2023-11-19T08:53:21;15.10;;;1.70;;
70829;SDS011;58451;51.550;7.208;2023-11-19T08:54:53;17.80;;;2.10;;
70829;SDS011;58451;51.550;7.208;2023-11-19T08:56:24;17.70;;;2.40;;
70829;SDS011;58451;51.550;7.208;2023-11-19T08:57:56;20.30;;;2.10;;
70829;SDS011;58451;51.550;7.208;2023-11-19T08:59:30;20.00;;;2.20;;
70829;SDS011;58451;51.550;7.208;2023-11-19T09:01:01;19.00;;;2.10;;
70829;SDS011;58451;51.550;7.208;2023-11-19T09:02:35;16.90;;;2.10;;
70829;SDS011;58451;51.550;7.208;2023-11-19T09:04:09;22.50;;;2.60;;
70829;SDS011;58451;51.550;7.208;2023-11-19T09:05:41;18.60;;;2.30;;
70829;SDS011;58451;51.550;7.208;2023-11-19T09:07:13;21.60;;;2.30;;
70829;SDS011;58451;51.550;7.208;2023-11-19T09:08:45;16.90;;;2.20;;
70829;SDS011;58451;51.550;7.208;2023-11-19T09:10:16;18.20;;;1.90;;
70829;SDS011;58451;51.550;7.208;2023-11-19T09:11:48;21.00;;;1.90;;
70829;SDS011;58451;51.550;7.208;2023-11-19T09:13:20;20.20;;;2.30;;
70829;SDS011;58451;51.550;7.208;2023-11-19T09:14:52;24.30;;;2.50;;
70829;SDS011;58451;51.550;7.208;2023-11-19T09:16:24;22.50;;;2.60;;
70829;SDS011;58451;51.550;7.208;2023-11-19T09:17:57;20.80;;;2.30;;
70829;SDS011;58451;51.550;7.208;2023-11-19T09:19:32;15.00;;;1.60;;
70829;SDS011;58451;51.550;7.208;2023-11-19T09:21:04;19.50;;;2.00;;
70829;SDS011;58451;51.550;7.208;2023-11-19T09:22:36;20.50;;;1.80;;
70829;SDS011;58451;51.550;7.208;2023-11-19T09:24:08;19.00;;;2.20;;